createdAt,value
2023-01-11T00:01:11.905Z,-9.11
2023-01-11T00:04:17.062Z,-8.95
2023-01-11T00:07:22.952Z,-8.96
2023-01-11T00:10:29.567Z,-8.95
2023-01-11T00:13:35.083Z,-8.90
2023-01-11T00:16:41.229Z,-9.05
2023-01-11T00:19:46.725Z,-9.14
2023-01-11T00:22:53.289Z,-9.07
2023-01-11T00:25:58.945Z,-9.15
2023-01-11T00:29:04.362Z,-9.21
2023-01-11T00:32:09.895Z,-9.14
2023-01-11T00:35:15.534Z,-9.20
2023-01-11T00:38:23.344Z,-9.52
2023-01-11T00:41:49.547Z,-9.59
2023-01-11T00:45:12.278Z,-9.61
2023-01-11T00:48:18.607Z,-9.82
2023-01-11T00:51:24.097Z,-9.70
2023-01-11T00:54:29.824Z,-9.81
2023-01-11T00:57:35.491Z,-9.75
2023-01-11T01:00:40.673Z,-9.43
2023-01-11T01:03:39.129Z,-9.57
2023-01-11T01:06:45.639Z,-9.29
2023-01-11T01:09:52.192Z,-9.39
2023-01-11T01:13:16.772Z,-9.41
2023-01-11T01:16:23.081Z,-9.52
2023-01-11T01:19:28.975Z,-9.53
2023-01-11T01:22:34.342Z,-9.45
2023-01-11T01:25:40.897Z,-9.34
2023-01-11T01:28:47.214Z,-9.38
2023-01-11T01:31:52.696Z,-9.48
2023-01-11T01:34:58.682Z,-9.53
2023-01-11T01:38:04.774Z,-9.56
2023-01-11T01:41:11.025Z,-9.54
2023-01-11T01:44:19.538Z,-9.45
2023-01-11T01:47:25.783Z,-9.27
2023-01-11T01:50:39.130Z,-9.42
2023-01-11T01:53:54.092Z,-9.45
2023-01-11T01:57:03.467Z,-9.34
2023-01-11T02:00:09.199Z,-9.52
2023-01-11T02:03:14.875Z,-9.37
2023-01-11T02:06:19.992Z,-9.28
2023-01-11T02:09:38.849Z,-9.16
2023-01-11T02:12:57.846Z,-9.17
2023-01-11T02:16:16.131Z,-9.26
2023-01-11T02:19:23.933Z,-9.34
2023-01-11T02:23:16.197Z,-9.35
2023-01-11T02:26:47.910Z,-9.24
2023-01-11T02:30:13.062Z,-9.14
2023-01-11T02:33:53.331Z,-9.09
2023-01-11T02:37:15.135Z,-9.21
2023-01-11T02:40:39.752Z,-8.92
2023-01-11T02:44:09.249Z,-9.22
2023-01-11T02:47:19.027Z,-9.22
2023-01-11T02:50:36.290Z,-9.32
2023-01-11T02:53:56.324Z,-9.28
2023-01-11T02:57:03.743Z,-9.34
2023-01-11T03:00:10.451Z,-9.52
2023-01-11T03:03:30.087Z,-9.48
2023-01-11T03:06:42.992Z,-9.42
2023-01-11T03:10:22.809Z,-9.53
2023-01-11T03:13:53.400Z,-9.29
2023-01-11T03:17:24.720Z,-9.13
2023-01-11T03:20:35.652Z,-9.35
2023-01-11T03:23:55.543Z,-9.42
2023-01-11T03:27:47.088Z,-8.93
2023-01-11T03:31:03.547Z,-9.27
2023-01-11T03:34:29.295Z,-9.05
2023-01-11T03:38:05.689Z,-8.77
2023-01-11T03:41:23.471Z,-8.74
2023-01-11T03:44:28.238Z,-8.67
2023-01-11T03:47:34.129Z,-8.81
2023-01-11T03:50:33.214Z,-8.70
2023-01-11T03:53:39.730Z,-9.02
2023-01-11T03:57:15.159Z,-8.90
2023-01-11T04:00:21.152Z,-8.95
2023-01-11T04:03:27.388Z,-8.90
2023-01-11T04:06:33.122Z,-8.94
2023-01-11T04:09:38.659Z,-8.96
2023-01-11T04:12:44.424Z,-8.84
2023-01-11T04:15:49.583Z,-9.98
2023-01-11T04:18:55.296Z,-10.04
2023-01-11T04:22:01.177Z,-9.99
2023-01-11T04:25:07.143Z,-10.02
2023-01-11T04:28:13.054Z,-9.13
2023-01-11T04:31:18.747Z,-8.96
2023-01-11T04:34:25.141Z,-8.99
2023-01-11T04:37:31.684Z,-8.91
2023-01-11T04:40:37.236Z,-8.67
2023-01-11T04:43:43.988Z,-8.78
2023-01-11T04:46:49.601Z,-8.86
2023-01-11T04:49:55.092Z,-9.15
2023-01-11T04:53:01.201Z,-9.31
2023-01-11T04:56:05.929Z,-9.30
2023-01-11T04:59:11.976Z,-9.29
2023-01-11T05:02:17.363Z,-9.12
2023-01-11T05:05:25.987Z,-8.87
2023-01-11T05:08:32.065Z,-9.11
2023-01-11T05:11:38.034Z,-8.94
2023-01-11T05:14:44.631Z,-9.25
2023-01-11T05:17:50.431Z,-9.24
2023-01-11T05:20:57.179Z,-9.08
2023-01-11T05:24:02.707Z,-9.18
2023-01-11T05:27:09.315Z,-8.98
2023-01-11T05:30:14.992Z,-9.05
2023-01-11T05:33:20.955Z,-9.02
2023-01-11T05:36:31.507Z,-8.97
2023-01-11T05:39:37.219Z,-8.99
2023-01-11T05:42:43.409Z,-8.86
2023-01-11T05:45:49.102Z,-8.79
2023-01-11T05:48:55.091Z,-8.95
2023-01-11T05:52:00.742Z,-8.93
2023-01-11T05:55:08.467Z,-8.82
2023-01-11T05:58:14.472Z,-8.91
2023-01-11T06:01:16.044Z,-8.96
2023-01-11T06:04:21.263Z,-8.89
2023-01-11T06:07:27.135Z,-8.93
2023-01-11T06:10:33.956Z,-9.06
2023-01-11T06:13:41.103Z,-8.99
2023-01-11T06:16:47.951Z,-8.69
2023-01-11T06:19:53.531Z,-8.94
2023-01-11T06:22:58.872Z,-9.04
2023-01-11T06:26:04.815Z,-9.03
2023-01-11T06:29:10.134Z,-8.80
2023-01-11T06:32:15.328Z,-8.49
2023-01-11T06:35:20.843Z,-8.31
2023-01-11T06:38:21.825Z,-8.48
2023-01-11T06:41:10.931Z,-8.14
2023-01-11T06:44:09.814Z,-8.10
2023-01-11T06:47:15.331Z,-7.53
2023-01-11T06:50:21.505Z,-7.39
2023-01-11T06:53:28.883Z,-7.27
2023-01-11T06:56:34.039Z,-7.45
2023-01-11T06:59:39.311Z,-7.41
2023-01-11T07:02:45.576Z,-7.19
2023-01-11T07:05:51.237Z,-7.01
2023-01-11T07:08:57.905Z,-7.02
2023-01-11T07:12:03.417Z,-6.97
2023-01-11T07:15:03.987Z,-6.90
2023-01-11T07:17:50.196Z,-7.18
2023-01-11T07:20:42.202Z,-6.90
2023-01-11T07:23:35.342Z,-6.91
2023-01-11T07:26:42.777Z,-7.01
2023-01-11T07:29:48.679Z,-6.85
2023-01-11T07:32:55.090Z,-6.62
2023-01-11T07:36:03.057Z,-6.59
2023-01-11T07:39:09.211Z,-6.76
2023-01-11T07:42:32.762Z,-6.54
2023-01-11T07:45:45.319Z,-6.39
2023-01-11T07:48:45.759Z,-6.19
2023-01-11T07:51:51.660Z,-6.31
2023-01-11T07:55:00.470Z,-6.24
2023-01-11T07:58:07.263Z,-6.18
2023-01-11T08:01:15.981Z,-5.97
2023-01-11T08:04:21.697Z,-6.03
2023-01-11T08:07:26.501Z,-6.02
2023-01-11T08:10:31.833Z,-6.00
2023-01-11T08:13:55.776Z,-5.89
2023-01-11T08:17:01.912Z,-5.88
2023-01-11T08:20:09.108Z,-5.70
2023-01-11T08:23:18.849Z,-5.68
2023-01-11T08:26:24.985Z,-5.62
2023-01-11T08:29:30.680Z,-5.42
2023-01-11T08:32:36.377Z,-5.46
2023-01-11T08:35:41.565Z,-5.50
2023-01-11T08:38:47.380Z,-5.23
2023-01-11T08:41:54.090Z,-5.17
2023-01-11T08:44:59.937Z,-5.08
2023-01-11T08:48:05.743Z,-5.06
2023-01-11T08:51:11.746Z,-5.04
2023-01-11T08:54:17.160Z,-5.06
2023-01-11T08:57:22.532Z,-5.07
2023-01-11T09:00:28.069Z,-4.94
2023-01-11T09:03:36.009Z,-4.92
2023-01-11T09:06:41.942Z,-4.98
2023-01-11T09:09:49.620Z,-4.73
2023-01-11T09:12:56.666Z,-4.69
2023-01-11T09:16:04.125Z,-4.34
2023-01-11T09:19:09.685Z,-4.29
2023-01-11T09:22:17.048Z,-4.14
2023-01-11T09:25:23.592Z,-4.16
2023-01-11T09:28:28.530Z,-3.93
2023-01-11T09:31:33.696Z,-4.01
2023-01-11T09:34:42.516Z,-3.91
2023-01-11T09:37:49.888Z,-3.26
2023-01-11T09:41:07.880Z,-3.19
2023-01-11T09:44:28.087Z,-3.14
2023-01-11T09:48:06.770Z,-3.12
2023-01-11T09:51:13.893Z,-3.38
2023-01-11T09:54:20.447Z,-3.17
2023-01-11T09:57:39.576Z,-3.17
2023-01-11T10:01:18.909Z,-3.04
2023-01-11T10:04:46.699Z,-3.28
2023-01-11T10:18:29.326Z,-2.91
2023-01-11T10:22:13.829Z,-3.11
2023-01-11T10:25:30.300Z,-2.89
2023-01-11T10:28:40.968Z,-2.73
2023-01-11T10:31:54.651Z,-2.67
2023-01-11T10:35:05.352Z,-2.72
2023-01-11T10:38:20.547Z,-2.65
2023-01-11T10:41:43.983Z,-2.52
2023-01-11T10:44:57.271Z,-2.40
2023-01-11T10:48:33.490Z,-2.44
2023-01-11T10:51:50.430Z,-2.36
2023-01-11T10:55:01.480Z,-2.32
2023-01-11T10:58:26.226Z,-2.38
2023-01-11T11:01:57.683Z,-2.15
2023-01-11T11:05:46.082Z,-2.02
2023-01-11T11:09:22.380Z,-1.96
2023-01-11T11:12:41.276Z,-1.76
2023-01-11T11:15:57.559Z,-1.60
2023-01-11T11:19:06.303Z,-1.61
2023-01-11T11:22:15.390Z,-1.51
2023-01-11T11:25:31.528Z,-1.70
2023-01-11T11:28:44.493Z,-1.82
2023-01-11T11:31:53.434Z,-1.76
2023-01-11T11:35:04.640Z,-1.85
2023-01-11T11:38:09.743Z,-1.92
2023-01-11T11:41:24.643Z,-1.92
2023-01-11T11:44:42.567Z,-1.55
2023-01-11T11:47:50.815Z,-1.48
2023-01-11T11:50:57.590Z,-1.49
2023-01-11T11:54:08.899Z,-1.48
2023-01-11T11:57:37.347Z,-1.33
2023-01-11T12:00:46.992Z,-1.30
2023-01-11T12:03:51.838Z,-1.35
2023-01-11T12:06:58.586Z,-1.22
2023-01-11T12:10:06.870Z,-1.12
2023-01-11T12:13:14.897Z,-1.03
2023-01-11T12:16:37.090Z,-1.06
2023-01-11T12:19:54.526Z,-0.91
2023-01-11T12:23:01.442Z,-1.13
2023-01-11T12:26:22.193Z,-1.22
2023-01-11T12:29:43.659Z,-1.29
2023-01-11T12:33:08.411Z,-1.22
2023-01-11T12:36:28.691Z,-1.40
2023-01-11T12:39:53.370Z,-1.29
2023-01-11T12:43:12.777Z,-1.26
2023-01-11T12:46:40.000Z,-1.29
2023-01-11T12:50:05.959Z,-1.15
2023-01-11T12:53:42.753Z,-1.31
2023-01-11T12:57:14.035Z,-1.20
2023-01-11T13:00:33.723Z,-1.16
2023-01-11T13:04:01.223Z,-1.25
2023-01-11T13:07:23.792Z,-1.14
2023-01-11T13:10:34.717Z,-1.20
2023-01-11T13:14:01.252Z,-1.32
2023-01-11T13:17:34.647Z,-1.27
2023-01-11T13:21:00.694Z,-1.40
2023-01-11T13:24:05.568Z,-1.32
2023-01-11T13:27:21.036Z,-1.26
2023-01-11T13:30:29.581Z,-1.41
2023-01-11T13:33:39.207Z,-1.43
2023-01-11T13:36:54.186Z,-1.41
2023-01-11T13:40:14.358Z,-1.49
2023-01-11T13:43:36.874Z,-1.50
2023-01-11T13:47:13.821Z,-1.60
2023-01-11T13:50:35.049Z,-1.62
2023-01-11T13:53:53.702Z,-1.60
2023-01-11T13:57:05.512Z,-1.69
2023-01-11T14:00:14.338Z,-1.89
2023-01-11T14:04:02.200Z,-1.84
2023-01-11T14:07:15.553Z,-1.87
2023-01-11T14:10:56.523Z,-2.02
2023-01-11T14:14:21.515Z,-2.02
2023-01-11T14:17:45.616Z,-2.06
2023-01-11T14:21:02.031Z,-2.03
2023-01-11T14:24:09.429Z,-2.07
2023-01-11T14:27:28.026Z,-2.13
2023-01-11T14:31:17.651Z,-2.21
2023-01-11T14:34:39.927Z,-2.19
2023-01-11T14:38:20.940Z,-2.13
2023-01-11T14:41:58.944Z,-2.15
2023-01-11T14:45:16.370Z,-2.12
2023-01-11T14:48:43.829Z,-2.23
2023-01-11T14:52:19.870Z,-2.43
2023-01-11T14:55:37.749Z,-2.40
2023-01-11T14:58:46.019Z,-2.64
2023-01-11T15:02:21.413Z,-2.65
2023-01-11T15:05:48.638Z,-2.50
2023-01-11T15:09:03.649Z,-2.60
2023-01-11T15:12:10.644Z,-2.80
2023-01-11T15:15:32.543Z,-2.57
2023-01-11T15:18:39.230Z,-2.73
2023-01-11T15:21:47.352Z,-2.81
2023-01-11T15:24:58.313Z,-2.83
2023-01-11T15:28:04.191Z,-2.93
2023-01-11T15:31:09.494Z,-2.83
2023-01-11T15:34:40.980Z,-2.99
2023-01-11T15:38:06.915Z,-3.25
2023-01-11T15:41:30.754Z,-3.55
2023-01-11T15:45:25.241Z,-2.92
2023-01-11T15:48:37.560Z,-2.98
2023-01-11T15:52:25.506Z,-3.20
2023-01-11T15:56:18.035Z,-3.75
2023-01-11T15:59:50.657Z,-3.46
2023-01-11T16:03:16.502Z,-2.88
2023-01-11T16:06:32.029Z,-3.50
2023-01-11T16:10:03.173Z,-3.48
2023-01-11T16:13:21.937Z,-3.57
2023-01-11T16:16:33.876Z,-3.25
2023-01-11T16:19:47.341Z,-2.76
2023-01-11T16:22:53.564Z,-3.10
2023-01-11T16:25:59.900Z,-3.43
2023-01-11T16:29:08.823Z,-2.74
2023-01-11T16:32:23.709Z,-2.77
2023-01-11T16:35:39.416Z,-2.47
2023-01-11T16:38:45.224Z,-2.81
2023-01-11T16:42:14.401Z,-2.86
2023-01-11T16:45:22.035Z,-2.98
2023-01-11T16:48:33.880Z,-3.10
2023-01-11T16:51:39.877Z,-3.15
2023-01-11T16:54:47.321Z,-2.94
2023-01-11T16:57:55.900Z,-2.68
2023-01-11T17:01:12.843Z,-2.64
2023-01-11T17:04:19.443Z,-2.43
2023-01-11T17:07:40.663Z,-2.44
2023-01-11T17:10:46.429Z,-2.60
2023-01-11T17:14:14.249Z,-2.64
2023-01-11T17:17:22.912Z,-2.74
2023-01-11T17:20:34.980Z,-3.03
2023-01-11T17:23:41.045Z,-3.04
2023-01-11T17:26:50.362Z,-3.01
2023-01-11T17:29:55.523Z,-2.88
2023-01-11T17:33:05.688Z,-2.68
2023-01-11T17:36:10.591Z,-2.77
2023-01-11T17:39:16.284Z,-2.56
2023-01-11T17:42:24.310Z,-2.99
2023-01-11T17:45:39.018Z,-2.58
2023-01-11T17:48:44.242Z,-2.18
2023-01-11T17:51:51.275Z,-2.40
2023-01-11T17:54:57.665Z,-2.43
2023-01-11T17:58:34.684Z,-2.45
2023-01-11T18:01:33.831Z,-2.32
2023-01-11T18:04:40.639Z,-2.68
2023-01-11T18:07:45.718Z,-2.68
2023-01-11T18:10:53.832Z,-2.44
2023-01-11T18:13:59.665Z,-2.47
2023-01-11T18:17:19.221Z,-2.43
2023-01-11T18:20:36.989Z,-1.84
2023-01-11T18:23:43.490Z,-2.44
2023-01-11T18:26:48.683Z,-2.22
2023-01-11T18:29:59.375Z,-2.59
2023-01-11T18:33:05.281Z,-2.52
2023-01-11T18:36:14.704Z,-2.53
2023-01-11T18:39:26.563Z,-2.66
2023-01-11T18:42:34.774Z,-2.80
2023-01-11T18:45:40.101Z,-2.89
2023-01-11T18:48:45.299Z,-2.88
2023-01-11T18:51:51.704Z,-2.79
2023-01-11T18:54:57.739Z,-2.93
2023-01-11T18:58:03.703Z,-2.81
2023-01-11T19:01:12.423Z,-2.75
2023-01-11T19:04:18.431Z,-2.60
2023-01-11T19:07:24.506Z,-2.62
2023-01-11T19:10:31.895Z,-2.60
2023-01-11T19:13:38.055Z,-2.55
2023-01-11T19:16:43.318Z,-2.52
2023-01-11T19:19:49.249Z,-2.58
2023-01-11T19:22:56.038Z,-2.54
2023-01-11T19:26:02.301Z,-2.62
2023-01-11T19:29:07.570Z,-2.66
2023-01-11T19:32:13.060Z,-2.53
2023-01-11T19:35:11.079Z,-2.33
2023-01-11T19:38:04.069Z,-2.26
2023-01-11T19:41:09.670Z,-2.19
2023-01-11T19:44:14.902Z,-2.20
2023-01-11T19:47:24.554Z,-2.26
2023-01-11T19:50:32.287Z,-2.24
2023-01-11T19:53:37.357Z,-2.24
2023-01-11T19:56:43.609Z,-2.28
2023-01-11T19:59:49.860Z,-2.18
2023-01-11T20:02:56.087Z,-2.30
2023-01-11T20:06:01.389Z,-2.25
2023-01-11T20:09:07.414Z,-2.33
2023-01-11T20:12:13.213Z,-2.28
2023-01-11T20:15:18.522Z,-1.99
2023-01-11T20:18:23.609Z,-1.87
2023-01-11T20:21:29.100Z,-1.96
2023-01-11T20:24:39.362Z,-1.77
2023-01-11T20:27:46.198Z,-1.67
2023-01-11T20:30:56.731Z,-1.87
2023-01-11T20:34:02.688Z,-1.87
2023-01-11T20:37:07.813Z,-1.84
2023-01-11T20:40:14.483Z,-2.86
2023-01-11T20:43:20.591Z,-2.10
2023-01-11T20:46:26.472Z,-1.98
2023-01-11T20:49:32.080Z,-1.87
2023-01-11T20:52:37.486Z,-1.54
2023-01-11T20:55:42.472Z,-2.07
2023-01-11T20:58:48.918Z,-1.89
2023-01-11T21:01:53.770Z,-1.85
2023-01-11T21:05:00.257Z,-1.75
2023-01-11T21:08:08.340Z,-1.95
2023-01-11T21:11:22.217Z,-1.77
2023-01-11T21:14:27.637Z,-1.76
2023-01-11T21:17:33.656Z,-2.07
2023-01-11T21:20:38.437Z,-2.20
2023-01-11T21:23:43.663Z,-1.76
2023-01-11T21:26:50.863Z,-2.26
2023-01-11T21:29:57.636Z,-2.43
2023-01-11T21:33:03.761Z,-2.77
2023-01-11T21:36:10.868Z,-2.48
2023-01-11T21:39:16.333Z,-1.98
2023-01-11T21:42:21.726Z,-2.54
2023-01-11T21:45:26.597Z,-2.31
2023-01-11T21:48:31.343Z,-2.35
2023-01-11T21:51:41.119Z,-2.59
2023-01-11T21:54:46.884Z,-2.62
2023-01-11T21:57:53.750Z,-2.66
2023-01-11T22:01:00.848Z,-2.73
2023-01-11T22:04:06.256Z,-2.71
2023-01-11T22:07:12.343Z,-2.71
2023-01-11T22:10:19.430Z,-2.99
2023-01-11T22:13:24.967Z,-2.64
2023-01-11T22:16:32.181Z,-2.70
2023-01-11T22:19:37.751Z,-2.68
2023-01-11T22:22:44.436Z,-2.61
2023-01-11T22:25:51.555Z,-2.73
2023-01-11T22:29:15.538Z,-2.96
2023-01-11T22:32:22.081Z,-2.95
2023-01-11T22:35:28.310Z,-3.07
2023-01-11T22:38:34.709Z,-3.10
2023-01-11T22:41:39.908Z,-2.93
2023-01-11T22:44:46.397Z,-3.09
2023-01-11T22:47:51.409Z,-2.87
2023-01-11T22:50:57.305Z,-3.04
2023-01-11T22:54:04.088Z,-2.91
2023-01-11T22:57:09.918Z,-2.84
2023-01-11T23:00:16.548Z,-2.74
2023-01-11T23:03:22.645Z,-2.93
2023-01-11T23:06:31.525Z,-2.76
2023-01-11T23:09:37.698Z,-2.85
2023-01-11T23:13:01.897Z,-3.08
2023-01-11T23:16:10.850Z,-3.03
2023-01-11T23:19:17.162Z,-2.29
2023-01-11T23:22:23.812Z,-2.33
2023-01-11T23:25:29.704Z,-1.94
2023-01-11T23:28:37.266Z,-2.19
2023-01-11T23:31:43.328Z,-2.22
2023-01-11T23:34:50.825Z,-2.15
2023-01-11T23:37:56.867Z,-2.44
2023-01-11T23:41:20.358Z,-2.25
2023-01-11T23:44:30.123Z,-2.39
2023-01-11T23:47:38.354Z,-2.33
2023-01-11T23:50:36.951Z,-2.49
2023-01-11T23:53:42.889Z,-2.70
2023-01-11T23:56:49.082Z,-2.76
2023-01-11T23:59:54.456Z,-2.72
